Airfield :
LOGIN :

Register | Disclaimer

   EN    FR    IT 

 










Legend :    VFR   Marginal VFR   IFR   Intensive IFR   Very Intensive IFR
Visi :
Ceiling :
>= 8 km
>= 3000ft
5 to 8 km
1000 to 3000 ft
1500m to 5 km
500 to 1000 ft
800 to 1500m
200 to 500 ft
< 800m
< 200 ft
Symbols :   Thunderstorms  Fog  Heavy snow  Heavy precipitations  Wind > 20 kt
SIGMETs :     Misc.  Thunderstorms  Icing  Turbulence  Mountain Waves  Volcanic Ashes







- Airport Elevation : 42 ft
- IATA code : KGD


UMKK - Khrabrava - Kaliningrad

CURRENT METAR :
  • 250900Z 26005MPS 9999 BKN014 06/02 Q1009 R24/CLRD60 NOSIG RMK QFE756/1008

EXPIRED METARs :
  • 250830Z 25005MPS 9999 BKN014 05/02 Q1009 R24/CLRD60 NOSIG RMK QFE756/1008
  • 250800Z 24005MPS 9999 SCT018 05/02 Q1009 R24/60D NOSIG RMK QFE756/1008
  • 250730Z 24005MPS 9999 FEW030 04/02 Q1009 R24/CLRD60 NOSIG RMK QFE756/1008
  • 250700Z 24005MPS 9999 FEW030 04/02 Q1009 R24/60D NOSIG RMK QFE756/1008
  • 250630Z 23004MPS 9999 FEW030 03/02 Q1010 R24/CLRD60 NOSIG RMK QFE756/1008

TAF TAF UMKK
Valid from the 25 at 09:00 until the 26 at 09:00 UTC


250800Z 2509/2609 26005G10MPS 9999 SCT011 BKN020
TEMPO 2509/2522 3100 -SHRAGS BKN006 BKN015CB
BECMG 2512/2514 33006G11MPS
BECMG 2601/2603 26005G10MPS



MET'MAP, your aeronautical weather chart ! - Copyright ORBIFLY December 2007 - Disclaimer

ORBIFLY MET'MAP TEAM :

Programming & Development : Alexandra Zaïnal
Concept & Development : Baudouin d'Aumeries
Co-Development & Prog : Marc-Olivier Méhu
Technical & hardware support : Manuel Goepfert

Contact : metmap@orbifly.com




SOURCES & CREDITS :

   NOAA